Time;durP1;ratioP1;P1;durP2;ratioP2;P2;SDS_P1;SDS_P2;PMS_P1;PMS_P2;Temp;Humidity;BMP_temperature;BMP_pressure;BME280_temperature;BME280_humidity;BME280_pressure;Samples;Min_cycle;Max_cycle;Signal;HPM_P1;HPM_P2
2021/09/27 00:00:08;;;;;;;30.63;19.63;;;;;;;15.73;100.00;96167.38;1031615;28;20090;-62
2021/09/27 00:00:45;;;;;;;31.65;19.20;;;;;;;15.72;100.00;96171.97;1023522;28;20357;-62
2021/09/27 00:01:15;;;;;;;29.17;19.27;;;;;;;15.76;100.00;96172.16;1023493;29;20059;-62
2021/09/27 00:01:47;;;;;;;30.10;19.80;;;;;;;15.76;100.00;96169.47;1024808;28;20085;-62
2021/09/27 00:02:18;;;;;;;30.00;18.42;;;;;;;15.75;100.00;96167.88;1025735;28;20026;-62
2021/09/27 00:02:48;;;;;;;26.90;18.57;;;;;;;15.76;100.00;96169.47;1029471;28;20022;-62
2021/09/27 00:03:19;;;;;;;28.83;17.47;;;;;;;15.74;100.00;96172.47;1028192;28;20392;-62
2021/09/27 00:03:49;;;;;;;26.53;17.40;;;;;;;15.75;100.00;96171.34;1023835;28;20404;-62
2021/09/27 00:04:20;;;;;;;28.90;18.10;;;;;;;15.71;100.00;96166.88;1027626;28;20094;-62
2021/09/27 00:04:50;;;;;;;27.03;17.90;;;;;;;15.73;100.00;96168.19;1031667;28;20089;-62
2021/09/27 00:05:21;;;;;;;30.13;18.07;;;;;;;15.73;100.00;96164.69;1031459;28;20026;-61
2021/09/27 00:05:52;;;;;;;29.08;18.42;;;;;;;15.74;100.00;96174.34;1032005;28;20037;-62
2021/09/27 00:06:22;;;;;;;26.40;18.43;;;;;;;15.77;100.00;96179.16;1031848;28;20381;-62
2021/09/27 00:06:52;;;;;;;25.90;17.80;;;;;;;15.78;100.00;96170.78;1031718;28;20025;-62
2021/09/27 00:07:23;;;;;;;27.67;18.87;;;;;;;15.79;100.00;96175.06;1031711;28;20027;-62
2021/09/27 00:07:53;;;;;;;34.87;19.47;;;;;;;15.82;100.00;96181.75;1031818;28;20023;-62
2021/09/27 00:08:24;;;;;;;28.30;18.60;;;;;;;15.82;100.00;96174.47;1031508;28;20376;-62
2021/09/27 00:08:54;;;;;;;29.43;19.97;;;;;;;15.83;100.00;96170.69;1031824;28;20509;-62
2021/09/27 00:09:32;;;;;;;29.33;19.60;;;;;;;15.84;100.00;96176.88;1031871;28;20065;-62
2021/09/27 00:10:03;;;;;;;28.67;18.73;;;;;;;15.83;100.00;96177.97;1031613;28;20014;-62
2021/09/27 00:10:49;;;;;;;22.92;16.38;;;;;;;15.83;100.00;96169.88;1027465;28;20547;-63
2021/09/27 00:11:22;;;;;;;28.27;18.35;;;;;;;15.84;100.00;96172.28;1026858;28;20029;-62
2021/09/27 00:11:52;;;;;;;30.65;20.15;;;;;;;15.83;100.00;96175.28;1028592;28;20027;-62
2021/09/27 00:12:22;;;;;;;28.23;19.00;;;;;;;15.85;100.00;96173.84;1031674;28;20037;-62
2021/09/27 00:12:53;;;;;;;29.33;18.47;;;;;;;15.83;100.00;96175.28;1033817;28;20080;-62
2021/09/27 00:13:27;;;;;;;27.90;18.43;;;;;;;15.84;100.00;96168.78;1030284;28;20173;-63
2021/09/27 00:14:00;;;;;;;28.45;18.55;;;;;;;15.85;100.00;96170.38;1030386;28;20052;-62
2021/09/27 00:14:30;;;;;;;29.95;19.73;;;;;;;15.85;100.00;96173.84;1034123;28;20653;-62
2021/09/27 00:15:00;;;;;;;33.37;20.80;;;;;;;15.87;100.00;96176.28;1035848;28;20084;-62
2021/09/27 00:15:35;;;;;;;30.57;19.97;;;;;;;15.89;100.00;96167.88;1035510;28;20072;-62
2021/09/27 00:16:06;;;;;;;27.25;18.70;;;;;;;15.89;100.00;96175.97;1029993;28;20033;-62
2021/09/27 00:16:36;;;;;;;32.55;21.10;;;;;;;15.90;100.00;96178.34;1027526;28;20089;-62
2021/09/27 00:17:09;;;;;;;28.73;19.27;;;;;;;15.90;100.00;96167.56;1028291;28;20412;-62
2021/09/27 00:17:39;;;;;;;34.95;20.45;;;;;;;15.91;100.00;96166.47;1031549;28;20519;-62
2021/09/27 00:18:10;;;;;;;35.00;20.57;;;;;;;15.91;100.00;96163.78;1031528;28;20030;-62
2021/09/27 00:18:41;;;;;;;31.42;19.45;;;;;;;15.93;100.00;96169.69;1027465;28;20534;-62
2021/09/27 00:19:11;;;;;;;32.20;20.07;;;;;;;15.90;100.00;96167.56;1027845;28;20030;-61
2021/09/27 00:19:41;;;;;;;34.80;19.93;;;;;;;15.91;100.00;96168.38;1026913;28;20030;-62
2021/09/27 00:20:12;;;;;;;32.60;20.20;;;;;;;15.87;100.00;96165.50;1025614;28;20023;-62
2021/09/27 00:20:46;;;;;;;29.83;19.53;;;;;;;15.87;100.00;96168.19;1027594;28;20440;-61
2021/09/27 00:21:19;;;;;;;31.92;20.08;;;;;;;15.87;100.00;96170.88;1027537;28;20014;-61
2021/09/27 00:21:50;;;;;;;31.80;21.05;;;;;;;15.88;100.00;96163.59;1029828;28;20019;-61
2021/09/27 00:22:20;;;;;;;33.15;21.40;;;;;;;15.88;100.00;96167.09;1027446;28;20026;-62
2021/09/27 00:22:51;;;;;;;31.17;19.70;;;;;;;15.88;100.00;96166.28;1027665;28;20026;-62
2021/09/27 00:23:22;;;;;;;30.10;19.90;;;;;;;15.88;100.00;96166.28;1027576;28;20443;-62
2021/09/27 00:23:53;;;;;;;32.60;20.33;;;;;;;15.90;100.00;96167.56;1023982;28;20024;-62
2021/09/27 00:24:23;;;;;;;33.13;20.47;;;;;;;15.89;100.00;96165.19;1031432;28;20026;-62
2021/09/27 00:24:54;;;;;;;33.17;19.80;;;;;;;15.90;100.00;96156.78;1031627;28;20014;-62
2021/09/27 00:25:25;;;;;;;32.70;19.50;;;;;;;15.90;100.00;96162.19;1031594;28;20037;-62
2021/09/27 00:25:55;;;;;;;32.25;20.15;;;;;;;15.90;100.00;96164.88;1031523;28;20022;-62
2021/09/27 00:26:27;;;;;;;31.83;20.37;;;;;;;15.91;100.00;96162.97;1031496;28;20050;-63
2021/09/27 00:26:57;;;;;;;26.98;19.55;;;;;;;15.92;100.00;96161.88;1031562;28;20050;-63
2021/09/27 00:27:27;;;;;;;28.37;18.67;;;;;;;15.94;100.00;96163.19;1031574;28;20041;-63
2021/09/27 00:27:58;;;;;;;35.23;20.07;;;;;;;15.94;100.00;96167.78;1031809;28;20309;-63
2021/09/27 00:28:28;;;;;;;32.40;20.73;;;;;;;15.92;100.00;96162.69;1031907;28;20007;-63
2021/09/27 00:28:59;;;;;;;28.87;19.13;;;;;;;15.93;100.00;96161.59;1031603;28;20479;-63
2021/09/27 00:29:29;;;;;;;31.83;19.63;;;;;;;15.94;100.00;96154.31;1031556;28;20025;-63
2021/09/27 00:30:00;;;;;;;34.07;20.33;;;;;;;15.95;100.00;96161.28;1030818;28;20073;-60
2021/09/27 00:30:31;;;;;;;37.97;21.43;;;;;;;15.94;100.00;96157.00;1027726;28;20459;-61
2021/09/27 00:31:01;;;;;;;28.50;19.67;;;;;;;15.97;100.00;96159.91;1031606;28;20728;-61
2021/09/27 00:31:31;;;;;;;33.30;20.90;;;;;;;15.95;100.00;96159.38;1031505;28;20030;-61
2021/09/27 00:32:02;;;;;;;25.27;18.40;;;;;;;15.95;100.00;96162.09;1031513;28;20026;-61
2021/09/27 00:32:32;;;;;;;31.23;20.17;;;;;;;15.98;100.00;96163.41;1031758;28;20029;-60
2021/09/27 00:33:03;;;;;;;31.70;20.97;;;;;;;15.97;100.00;96161.78;1031915;28;20097;-61
2021/09/27 00:33:34;;;;;;;29.50;19.27;;;;;;;15.98;100.00;96160.72;1031860;28;20029;-61
2021/09/27 00:34:04;;;;;;;31.80;20.23;;;;;;;16.00;100.00;96161.19;1031786;28;20018;-61
2021/09/27 00:34:34;;;;;;;28.40;18.67;;;;;;;16.00;100.00;96153.09;1031850;28;20018;-61
2021/09/27 00:35:05;;;;;;;38.90;23.63;;;;;;;16.01;100.00;96160.09;1031897;28;20068;-61
2021/09/27 00:35:37;;;;;;;29.42;19.73;;;;;;;16.00;100.00;96163.88;1031860;28;20081;-61
2021/09/27 00:36:07;;;;;;;33.78;21.00;;;;;;;16.00;100.00;96159.28;1031772;28;20463;-62
2021/09/27 00:36:37;;;;;;;32.20;21.07;;;;;;;16.03;100.00;96157.91;1027375;28;20027;-61
2021/09/27 00:37:08;;;;;;;31.90;20.20;;;;;;;16.03;100.00;96157.91;1023667;29;20043;-62
2021/09/27 00:37:38;;;;;;;30.77;18.77;;;;;;;16.03;100.00;96163.28;1023537;29;20035;-62
2021/09/27 00:38:09;;;;;;;28.97;20.50;;;;;;;16.04;100.00;96162.19;1023327;28;20039;-62
2021/09/27 00:38:39;;;;;;;32.57;20.53;;;;;;;16.02;100.00;96161.69;1027490;28;20108;-62
2021/09/27 00:39:10;;;;;;;34.70;22.00;;;;;;;16.04;100.00;96163.00;1027950;28;20038;-62
2021/09/27 00:39:40;;;;;;;40.37;23.20;;;;;;;16.06;100.00;96159.97;1031548;28;20054;-63
2021/09/27 00:40:13;;;;;;;40.63;23.17;;;;;;;16.07;100.00;96164.28;1029741;28;20427;-63
2021/09/27 00:40:45;;;;;;;33.05;20.95;;;;;;;16.06;100.00;96158.09;1030744;28;20029;-63
2021/09/27 00:41:17;;;;;;;31.85;20.85;;;;;;;16.07;100.00;96161.56;1030176;28;20105;-62
2021/09/27 00:41:47;;;;;;;28.15;19.33;;;;;;;16.07;100.00;96162.41;1030591;28;20030;-62
2021/09/27 00:42:18;;;;;;;30.83;18.90;;;;;;;16.08;100.00;96158.59;1031122;28;20038;-62
2021/09/27 00:42:48;;;;;;;37.10;22.27;;;;;;;16.07;100.00;96159.72;1031445;28;20382;-62
2021/09/27 00:43:19;;;;;;;29.47;19.23;;;;;;;16.08;100.00;96158.59;1027515;28;20073;-62
2021/09/27 00:43:49;;;;;;;30.23;19.90;;;;;;;16.08;100.00;96155.09;1023589;29;20023;-62
2021/09/27 00:44:20;;;;;;;32.67;20.50;;;;;;;16.09;100.00;96164.78;1023717;28;20509;-62
2021/09/27 00:44:50;;;;;;;31.20;20.27;;;;;;;16.10;100.00;96163.69;1027187;28;20498;-62
2021/09/27 00:45:23;;;;;;;29.33;19.70;;;;;;;16.09;100.00;96157.50;1031463;28;20491;-62
2021/09/27 00:45:56;;;;;;;32.40;20.95;;;;;;;16.08;100.00;96155.91;1028247;28;20019;-62
2021/09/27 00:46:27;;;;;;;34.78;21.33;;;;;;;16.08;100.00;96160.50;1031724;28;20030;-62
2021/09/27 00:46:58;;;;;;;31.40;20.07;;;;;;;16.08;100.00;96163.19;1031782;28;20030;-62
2021/09/27 00:47:28;;;;;;;33.40;20.60;;;;;;;16.08;100.00;96152.41;1031830;28;20026;-62
2021/09/27 00:47:59;;;;;;;30.70;20.03;;;;;;;16.06;100.00;96158.09;1031748;28;20027;-62
2021/09/27 00:48:29;;;;;;;31.20;19.13;;;;;;;16.07;100.00;96157.00;1035679;28;20108;-62
2021/09/27 00:49:00;;;;;;;28.70;20.07;;;;;;;16.06;100.00;96158.09;1035522;28;20137;-62
2021/09/27 00:49:31;;;;;;;28.70;20.10;;;;;;;16.08;100.00;96150.50;1031572;28;20503;-62
2021/09/27 00:50:01;;;;;;;31.40;20.23;;;;;;;16.07;100.00;96148.09;1031337;28;20018;-62
2021/09/27 00:50:35;;;;;;;31.37;20.63;;;;;;;16.08;100.00;96153.22;1027614;28;20015;-62
2021/09/27 00:51:13;;;;;;;32.53;20.42;;;;;;;16.07;100.00;96148.91;1023158;29;20030;-62
2021/09/27 00:51:43;;;;;;;29.80;19.40;;;;;;;16.08;100.00;96155.09;1019363;29;20099;-62
2021/09/27 00:52:14;;;;;;;30.13;20.07;;;;;;;16.09;100.00;96151.31;1019482;29;20171;-62
2021/09/27 00:52:44;;;;;;;29.63;20.00;;;;;;;16.07;100.00;96148.09;1020933;29;20035;-62
2021/09/27 00:53:19;;;;;;;29.37;19.27;;;;;;;16.08;100.00;96144.31;1015430;29;20019;-62
2021/09/27 00:53:58;;;;;;;32.88;22.00;;;;;;;16.06;100.00;96152.69;1016888;29;20032;-61
2021/09/27 00:54:31;;;;;;;28.35;18.80;;;;;;;16.05;100.00;96151.09;1019296;29;20095;-62
2021/09/27 00:55:02;;;;;;;31.52;20.45;;;;;;;16.07;100.00;96153.50;1017739;29;20020;-62
2021/09/27 00:55:32;;;;;;;35.17;20.40;;;;;;;16.02;100.00;96146.31;1017658;29;20024;-62
2021/09/27 00:56:03;;;;;;;35.47;21.23;;;;;;;15.99;100.00;96146.13;1020924;29;20024;-61
2021/09/27 00:56:45;;;;;;;34.03;21.67;;;;;;;15.96;100.00;96152.91;1023803;28;20138;-63
2021/09/27 00:57:17;;;;;;;34.53;21.60;;;;;;;15.95;100.00;96151.31;1021123;29;20114;-62
2021/09/27 00:57:48;;;;;;;32.30;20.25;;;;;;;15.98;100.00;96150.72;1023566;29;20027;-62
2021/09/27 00:58:18;;;;;;;35.97;20.87;;;;;;;15.99;100.00;96157.69;1019594;29;20516;-62
2021/09/27 00:58:49;;;;;;;35.23;21.87;;;;;;;15.98;100.00;96150.72;1017655;29;20028;-62
2021/09/27 00:59:20;;;;;;;31.37;20.47;;;;;;;16.00;100.00;96145.03;1019565;29;20028;-62
2021/09/27 00:59:53;;;;;;;37.58;22.23;;;;;;;16.01;100.00;96143.91;1011953;29;20024;-62
2021/09/27 01:00:25;;;;;;;35.42;21.65;;;;;;;15.98;100.00;96142.63;1016096;29;20020;-62
2021/09/27 01:00:55;;;;;;;30.27;20.20;;;;;;;16.00;100.00;96142.31;1020357;29;20416;-62
2021/09/27 01:01:26;;;;;;;34.13;21.93;;;;;;;16.01;100.00;96149.31;1024060;28;20035;-62
2021/09/27 01:01:56;;;;;;;37.53;22.70;;;;;;;16.00;100.00;96145.81;1027474;28;20388;-62
2021/09/27 01:02:27;;;;;;;40.37;23.30;;;;;;;16.00;100.00;96142.31;1027526;28;20510;-62
2021/09/27 01:02:57;;;;;;;32.63;20.73;;;;;;;15.99;100.00;96138.84;1027471;28;20023;-62
2021/09/27 01:03:28;;;;;;;30.13;20.90;;;;;;;16.00;100.00;96143.13;1027300;28;20070;-62
2021/09/27 01:03:58;;;;;;;35.77;21.17;;;;;;;16.01;100.00;96142.00;1027498;28;20384;-62
2021/09/27 01:04:29;;;;;;;40.53;21.77;;;;;;;16.02;100.00;96140.13;1031457;28;20022;-62
2021/09/27 01:04:59;;;;;;;30.33;20.47;;;;;;;16.02;100.00;96140.94;1032955;28;20018;-62
2021/09/27 01:05:29;;;;;;;33.17;21.70;;;;;;;16.00;100.00;96140.41;1035477;28;20029;-62
2021/09/27 01:06:08;;;;;;;33.93;21.50;;;;;;;16.01;100.00;96138.53;1031577;28;20019;-62
2021/09/27 01:06:39;;;;;;;32.20;20.92;;;;;;;16.01;100.00;96143.91;1031488;28;20163;-62
2021/09/27 01:07:25;;;;;;;37.03;22.53;;;;;;;16.03;100.00;96144.44;1027517;28;20445;-62
2021/09/27 01:08:12;;;;;;;34.22;20.70;;;;;;;15.99;100.00;96141.53;1022806;29;20412;-62
2021/09/27 01:08:49;;;;;;;35.70;21.85;;;;;;;15.98;100.00;96134.53;1019861;29;20103;-62
2021/09/27 01:09:40;;;;;;;34.25;20.70;;;;;;;15.98;100.00;96145.31;1019893;29;20659;-62
2021/09/27 01:10:31;;;;;;;38.40;22.75;;;;;;;15.97;100.00;96143.72;1019941;29;20175;-62
2021/09/27 01:11:08;;;;;;;33.55;21.45;;;;;;;15.95;100.00;96135.13;1028907;28;20026;-62
2021/09/27 01:11:38;;;;;;;31.02;20.35;;;;;;;15.96;100.00;96139.41;1027429;28;20077;-62
2021/09/27 01:12:27;;;;;;;34.80;21.23;;;;;;;15.97;100.00;96143.72;1027130;28;20034;-62
2021/09/27 01:12:58;;;;;;;34.38;21.02;;;;;;;15.95;100.00;96137.81;1023561;29;20079;-62
2021/09/27 01:13:50;;;;;;;33.47;21.57;;;;;;;15.93;100.00;96141.94;1026136;28;20093;-62
2021/09/27 01:14:49;;;;;;;33.42;21.05;;;;;;;15.93;100.00;96131.94;1031485;28;20141;-62
2021/09/27 01:15:41;;;;;;;35.10;20.25;;;;;;;15.92;100.00;96137.63;1031309;28;20041;-62
2021/09/27 01:16:26;;;;;;;37.67;22.25;;;;;;;15.90;100.00;96140.63;1027480;28;20030;-62
2021/09/27 01:17:31;;;;;;;37.20;21.65;;;;;;;15.90;100.00;96137.94;1026018;28;20054;-62
2021/09/27 01:18:38;;;;;;;36.83;22.30;;;;;;;15.87;100.00;96135.84;1031532;28;20030;-62
2021/09/27 01:19:30;;;;;;;33.30;21.13;;;;;;;15.84;100.00;96139.94;1023145;29;20035;-62
2021/09/27 01:20:30;;;;;;;34.70;21.02;;;;;;;15.83;100.00;96137.53;1021037;28;20034;-62
2021/09/27 01:21:14;;;;;;;38.47;23.02;;;;;;;15.83;100.00;96130.25;1027117;28;20323;-62
2021/09/27 01:21:56;;;;;;;40.47;23.00;;;;;;;15.84;100.00;96133.75;1020382;29;20158;-62
2021/09/27 01:22:54;;;;;;;38.80;22.20;;;;;;;15.82;100.00;96134.06;1020203;29;20074;-62
2021/09/27 01:23:42;;;;;;;35.67;21.65;;;;;;;15.82;100.00;96136.75;1028113;28;20035;-62
2021/09/27 01:24:34;;;;;;;32.78;20.85;;;;;;;15.84;100.00;96128.34;1030481;28;20058;-62
2021/09/27 01:25:29;;;;;;;39.92;21.80;;;;;;;15.82;100.00;96131.34;1030209;28;20058;-63
2021/09/27 01:26:18;;;;;;;38.20;22.52;;;;;;;15.83;100.00;96132.16;1031929;28;20045;-62
2021/09/27 01:27:21;;;;;;;36.60;21.75;;;;;;;15.81;100.00;96128.94;1028235;28;20031;-62
2021/09/27 01:28:09;;;;;;;29.75;20.40;;;;;;;15.82;100.00;96131.34;1030896;28;20117;-62
2021/09/27 01:29:01;;;;;;;32.53;21.27;;;;;;;15.80;100.00;96130.84;1032222;28;20035;-62
2021/09/27 01:29:37;;;;;;;35.38;21.38;;;;;;;15.83;100.00;96126.75;1028223;28;20060;-62
2021/09/27 01:30:40;;;;;;;32.83;20.25;;;;;;;15.80;100.00;96127.34;1028226;28;20046;-62
2021/09/27 01:31:42;;;;;;;36.92;22.15;;;;;;;15.79;100.00;96123.06;1026961;28;20463;-62
2021/09/27 01:32:36;;;;;;;34.72;21.33;;;;;;;15.77;100.00;96122.59;1028283;28;20078;-63
2021/09/27 01:33:10;;;;;;;37.10;21.88;;;;;;;15.79;100.00;96125.75;1028484;28;20027;-63
2021/09/27 01:33:57;;;;;;;37.45;22.48;;;;;;;15.77;100.00;96126.06;1024264;29;20613;-63
2021/09/27 01:34:53;;;;;;;46.10;24.77;;;;;;;15.78;100.00;96124.16;1024236;29;20031;-63
2021/09/27 01:35:48;;;;;;;36.40;22.13;;;;;;;15.78;100.00;96119.56;1019776;29;20039;-63
2021/09/27 01:36:41;;;;;;;36.30;22.20;;;;;;;15.77;100.00;96123.38;1022985;29;20407;-62
2021/09/27 01:37:36;;;;;;;35.92;22.45;;;;;;;15.75;100.00;96127.44;1024522;28;20331;-63
2021/09/27 01:38:37;;;;;;;33.70;21.02;;;;;;;15.73;100.00;96121.56;1018549;29;20032;-63
2021/09/27 01:39:15;;;;;;;32.25;20.80;;;;;;;15.75;100.00;96117.47;1023842;28;20094;-63
2021/09/27 01:40:09;;;;;;;42.75;23.38;;;;;;;15.71;100.00;96123.75;1021211;29;20027;-63
2021/09/27 01:40:51;;;;;;;32.17;20.25;;;;;;;15.72;100.00;96119.97;1016492;29;20050;-62
2021/09/27 01:41:36;;;;;;;28.95;19.77;;;;;;;15.73;100.00;96121.56;1012965;29;20043;-63
2021/09/27 01:42:15;;;;;;;34.83;22.08;;;;;;;15.74;100.00;96123.97;1008626;29;20029;-63
2021/09/27 01:43:05;;;;;;;37.75;23.38;;;;;;;15.73;100.00;96116.97;1012764;29;20025;-63
2021/09/27 01:44:05;;;;;;;33.65;21.23;;;;;;;15.69;100.00;96123.25;1024439;28;20095;-63
2021/09/27 01:44:40;;;;;;;34.72;22.02;;;;;;;15.71;100.00;96124.56;1030812;28;20038;-63
2021/09/27 01:45:29;;;;;;;40.00;22.83;;;;;;;15.70;100.00;96117.56;1029615;28;20033;-63
2021/09/27 01:46:31;;;;;;;40.47;23.45;;;;;;;15.72;100.00;96122.69;1028245;28;20036;-63
2021/09/27 01:47:09;;;;;;;42.60;25.25;;;;;;;15.72;100.00;96118.09;1024147;29;20078;-63
2021/09/27 01:47:50;;;;;;;41.70;23.40;;;;;;;15.72;100.00;96117.28;1022539;29;20496;-63
2021/09/27 01:48:22;;;;;;;35.08;22.65;;;;;;;15.71;100.00;96121.84;1016368;29;20040;-62
2021/09/27 01:49:10;;;;;;;35.13;22.90;;;;;;;15.71;100.00;96121.84;1018817;29;20024;-64
2021/09/27 01:50:08;;;;;;;42.25;22.63;;;;;;;15.66;100.00;96113.91;1026290;28;20026;-63
2021/09/27 01:50:41;;;;;;;38.08;23.20;;;;;;;15.69;100.00;96117.88;1034140;28;20452;-63
2021/09/27 01:51:24;;;;;;;41.38;24.13;;;;;;;15.69;100.00;96115.97;1023190;29;20023;-63
2021/09/27 01:52:21;;;;;;;36.50;22.08;;;;;;;15.67;100.00;96112.78;1024187;29;20183;-63
2021/09/27 01:52:54;;;;;;;37.50;22.65;;;;;;;15.70;100.00;96120.25;1022457;28;20024;-63
2021/09/27 01:53:33;;;;;;;42.15;23.77;;;;;;;15.71;100.00;96118.38;1020153;29;20020;-63
2021/09/27 01:54:17;;;;;;;35.22;22.13;;;;;;;15.71;100.00;96118.38;1016337;29;20082;-63
2021/09/27 01:54:50;;;;;;;44.25;24.60;;;;;;;15.68;100.00;96116.28;1016399;29;20027;-63
2021/09/27 01:55:48;;;;;;;39.38;23.55;;;;;;;15.67;100.00;96114.69;1016234;29;20047;-62
2021/09/27 01:56:32;;;;;;;36.85;21.83;;;;;;;15.67;100.00;96117.38;1024141;29;20393;-63
2021/09/27 01:57:16;;;;;;;36.60;23.00;;;;;;;15.69;100.00;96117.88;1023097;28;20032;-63
2021/09/27 01:57:54;;;;;;;36.17;22.92;;;;;;;15.69;100.00;96117.88;1028187;28;20023;-63
2021/09/27 01:58:40;;;;;;;37.47;22.58;;;;;;;15.67;100.00;96117.38;1028274;28;20070;-63
2021/09/27 01:59:37;;;;;;;39.67;24.10;;;;;;;15.63;100.00;96113.66;1028243;28;20847;-63
2021/09/27 02:00:08;;;;;;;37.92;23.48;;;;;;;15.65;100.00;96117.66;1020299;29;20032;-63
2021/09/27 02:00:41;;;;;;;39.50;23.87;;;;;;;15.66;100.00;96105.81;1020332;29;20027;-63
2021/09/27 02:01:51;;;;;;;38.03;22.88;;;;;;;15.66;100.00;96116.59;1012362;29;20020;-63
2021/09/27 02:02:43;;;;;;;43.65;26.10;;;;;;;15.67;100.00;96109.31;1023880;29;20039;-63
2021/09/27 02:03:36;;;;;;;43.60;25.08;;;;;;;15.67;100.00;96110.09;1028142;28;20035;-63
2021/09/27 02:04:10;;;;;;;36.80;21.50;;;;;;;15.66;100.00;96121.16;1024221;29;20096;-63
2021/09/27 02:04:56;;;;;;;42.58;24.75;;;;;;;15.67;100.00;96115.50;1016342;29;20032;-63
2021/09/27 02:05:34;;;;;;;35.58;21.90;;;;;;;15.67;100.00;96112.00;1012325;29;20429;-63
2021/09/27 02:06:25;;;;;;;37.08;22.80;;;;;;;15.64;100.00;96120.66;1011987;29;20031;-63
2021/09/27 02:06:55;;;;;;;35.85;22.58;;;;;;;15.64;100.00;96113.38;1018614;29;20036;-63
2021/09/27 02:07:27;;;;;;;40.53;23.87;;;;;;;15.66;100.00;96111.19;1019933;29;20031;-63
2021/09/27 02:08:02;;;;;;;39.15;24.27;;;;;;;15.65;100.00;96114.19;1023904;28;20030;-63
2021/09/27 02:09:05;;;;;;;40.05;23.65;;;;;;;15.63;100.00;96114.47;1021019;29;20560;-63
2021/09/27 02:09:47;;;;;;;36.03;22.50;;;;;;;15.65;100.00;96114.19;1024252;29;20092;-63
2021/09/27 02:10:23;;;;;;;42.95;23.65;;;;;;;15.62;100.00;96112.06;1026003;28;20642;-63
2021/09/27 02:11:11;;;;;;;39.92;25.50;;;;;;;15.64;100.00;96118.78;1024268;29;20015;-63
2021/09/27 02:11:43;;;;;;;42.60;24.85;;;;;;;15.63;100.00;96111.78;1020219;29;20059;-63
2021/09/27 02:12:24;;;;;;;41.00;24.05;;;;;;;15.64;100.00;96115.28;1016034;29;20020;-63
2021/09/27 02:13:06;;;;;;;36.42;23.48;;;;;;;15.59;100.00;96118.84;1016315;29;20032;-63
2021/09/27 02:13:51;;;;;;;35.65;22.20;;;;;;;15.60;100.00;96115.84;1020225;29;20027;-63
2021/09/27 02:14:46;;;;;;;42.92;23.85;;;;;;;15.57;100.00;96113.75;1016290;29;20024;-62
2021/09/27 02:15:22;;;;;;;37.97;22.45;;;;;;;15.59;100.00;96113.44;1018674;29;20485;-63
2021/09/27 02:16:00;;;;;;;36.63;22.58;;;;;;;15.61;100.00;96116.66;1020280;29;20019;-63
2021/09/27 02:16:50;;;;;;;40.53;24.15;;;;;;;15.59;100.00;96111.56;1020058;29;20020;-63
2021/09/27 02:17:28;;;;;;;40.22;24.42;;;;;;;15.60;100.00;96115.03;1015169;29;20019;-63
2021/09/27 02:18:18;;;;;;;38.42;23.98;;;;;;;15.58;100.00;96109.97;1012339;29;20052;-63
2021/09/27 02:18:55;;;;;;;38.70;23.83;;;;;;;15.57;100.00;96111.06;1013293;29;20031;-64
2021/09/27 02:19:43;;;;;;;41.42;24.23;;;;;;;15.55;100.00;96107.84;1012377;29;20088;-64
2021/09/27 02:20:30;;;;;;;38.03;23.92;;;;;;;15.58;100.00;96111.84;1016305;29;20020;-64
2021/09/27 02:21:20;;;;;;;35.35;22.98;;;;;;;15.59;100.00;96116.94;1013574;29;20081;-64
2021/09/27 02:21:51;;;;;;;38.75;23.13;;;;;;;15.59;100.00;96116.94;1017084;29;20112;-63
2021/09/27 02:22:46;;;;;;;38.85;23.13;;;;;;;15.56;100.00;96114.06;1012447;29;20028;-64
2021/09/27 02:23:35;;;;;;;35.45;22.40;;;;;;;15.55;100.00;96115.13;1016259;29;20041;-63
2021/09/27 02:24:18;;;;;;;33.30;21.45;;;;;;;15.56;100.00;96117.56;1015587;29;20021;-63
2021/09/27 02:25:21;;;;;;;38.67;23.55;;;;;;;15.55;100.00;96115.13;1020622;29;20035;-63
2021/09/27 02:25:51;;;;;;;38.63;24.08;;;;;;;15.52;100.00;96113.84;1018078;29;20461;-63
2021/09/27 02:26:22;;;;;;;41.83;24.20;;;;;;;15.54;100.00;96108.16;1021102;29;20019;-63
2021/09/27 02:26:53;;;;;;;37.57;22.97;;;;;;;15.53;100.00;96107.38;1024114;29;20094;-63
2021/09/27 02:27:23;;;;;;;38.78;23.30;;;;;;;15.52;100.00;96111.16;1027846;28;20463;-63
2021/09/27 02:27:53;;;;;;;41.43;25.03;;;;;;;15.53;100.00;96106.56;1023799;28;20070;-64
2021/09/27 02:28:24;;;;;;;37.07;23.77;;;;;;;15.55;100.00;96107.84;1024152;29;20019;-64
2021/09/27 02:28:56;;;;;;;47.67;26.97;;;;;;;15.55;100.00;96109.75;1016278;29;20016;-64
2021/09/27 02:29:27;;;;;;;49.05;26.90;;;;;;;15.55;100.00;96105.16;1016482;29;20017;-64
2021/09/27 02:29:57;;;;;;;45.73;25.67;;;;;;;15.52;100.00;96110.38;1020592;29;20506;-64
2021/09/27 02:30:57;;;;;;;46.53;26.90;;;;;;;15.48;100.00;96112.84;1020054;29;20027;-64
2021/09/27 02:31:47;;;;;;;54.15;27.70;;;;;;;15.48;100.00;96114.75;1016015;29;20024;-64
2021/09/27 02:32:30;;;;;;;39.38;23.25;;;;;;;15.47;100.00;96111.25;1018664;29;20020;-63
2021/09/27 02:33:39;;;;;;;47.00;25.80;;;;;;;15.46;100.00;96117.75;1013798;29;20080;-63
2021/09/27 02:34:17;;;;;;;54.20;27.80;;;;;;;15.46;100.00;96114.25;1019882;29;20170;-63
2021/09/27 02:35:13;;;;;;;48.40;27.10;;;;;;;15.47;100.00;96113.94;1020341;29;20043;-64
2021/09/27 02:35:48;;;;;;;51.03;26.85;;;;;;;15.42;100.00;96110.56;1020153;29;20083;-64
2021/09/27 02:36:35;;;;;;;45.13;25.30;;;;;;;15.40;100.00;96110.81;1020179;29;20453;-64
2021/09/27 02:37:12;;;;;;;45.50;26.50;;;;;;;15.39;100.00;96114.63;1024719;28;20034;-64
2021/09/27 02:37:58;;;;;;;43.63;25.83;;;;;;;15.40;100.00;96113.53;1020175;29;20026;-64
2021/09/27 02:38:48;;;;;;;44.10;25.08;;;;;;;15.40;100.00;96116.22;1026814;28;20031;-64
2021/09/27 02:39:29;;;;;;;42.70;24.15;;;;;;;15.40;100.00;96115.41;1028681;28;20058;-64
2021/09/27 02:40:09;;;;;;;42.40;25.38;;;;;;;15.41;100.00;96115.16;1027997;28;20058;-64
2021/09/27 02:40:45;;;;;;;45.45;25.45;;;;;;;15.41;100.00;96107.06;1023925;29;20030;-64
2021/09/27 02:41:40;;;;;;;41.70;24.33;;;;;;;15.39;100.00;96106.53;1023999;29;20039;-64
2021/09/27 02:42:28;;;;;;;45.88;26.08;;;;;;;15.40;100.00;96113.53;1024139;29;20031;-64
2021/09/27 02:43:00;;;;;;;50.15;26.15;;;;;;;15.41;100.00;96115.16;1022506;29;20026;-64
2021/09/27 02:43:31;;;;;;;55.22;28.05;;;;;;;15.40;100.00;96107.34;1016127;29;20499;-64
2021/09/27 02:44:01;;;;;;;57.30;28.43;;;;;;;15.39;100.00;96109.25;1022126;29;20059;-63
2021/09/27 02:44:32;;;;;;;52.83;28.23;;;;;;;15.41;100.00;96108.97;1022283;29;20028;-63
2021/09/27 02:45:04;;;;;;;46.38;26.08;;;;;;;15.39;100.00;96108.44;1020102;29;20087;-63
2021/09/27 02:45:35;;;;;;;53.22;27.02;;;;;;;15.40;100.00;96110.81;1019727;29;20110;-63
2021/09/27 02:46:05;;;;;;;49.90;28.17;;;;;;;15.37;100.00;96113.34;1012610;29;20045;-63
2021/09/27 02:46:42;;;;;;;45.43;25.93;;;;;;;15.37;100.00;96114.13;1016385;29;20127;-63
2021/09/27 02:47:17;;;;;;;48.25;26.40;;;;;;;15.34;100.00;96118.19;1021204;29;20488;-63
2021/09/27 02:47:51;;;;;;;49.10;26.58;;;;;;;15.34;100.00;96114.72;1025512;28;20039;-63
2021/09/27 02:48:38;;;;;;;45.22;26.13;;;;;;;15.32;100.00;96122.31;1028212;28;20030;-64
2021/09/27 02:49:12;;;;;;;46.53;25.95;;;;;;;15.36;100.00;96112.53;1027947;28;20392;-63
2021/09/27 02:49:44;;;;;;;45.85;25.67;;;;;;;15.37;100.00;96124.91;1027953;28;20031;-63
2021/09/27 02:50:23;;;;;;;48.88;27.33;;;;;;;15.37;100.00;96113.34;1028137;28;20023;-63
2021/09/27 02:50:53;;;;;;;47.65;26.90;;;;;;;15.37;100.00;96116.81;1031694;28;20026;-63
2021/09/27 02:51:25;;;;;;;50.00;27.47;;;;;;;15.37;100.00;96111.44;1024104;29;20626;-64
2021/09/27 02:52:00;;;;;;;52.92;28.58;;;;;;;15.37;100.00;96107.94;1020022;29;20076;-64
2021/09/27 02:52:30;;;;;;;48.10;25.73;;;;;;;15.36;100.00;96107.16;1024860;28;20027;-64
2021/09/27 02:53:01;;;;;;;48.27;26.93;;;;;;;15.37;100.00;96110.66;1028788;28;20031;-64